createdAt,value
2023-04-11T00:00:34.068Z,21
2023-04-11T00:06:27.166Z,21
2023-04-11T00:12:19.399Z,21
2023-04-11T00:18:11.616Z,21
2023-04-11T00:24:03.754Z,21
2023-04-11T00:29:55.553Z,21
2023-04-11T00:35:46.978Z,21
2023-04-11T00:41:38.709Z,21
2023-04-11T00:47:30.063Z,21
2023-04-11T00:53:22.249Z,20.9
2023-04-11T00:59:13.101Z,20.9
2023-04-11T01:05:07.975Z,20.9
2023-04-11T01:10:59.674Z,21
2023-04-11T01:16:51.782Z,21
2023-04-11T01:28:04.438Z,21.2
2023-04-11T01:33:56.721Z,21.3
2023-04-11T01:39:33.135Z,21.4
2023-04-11T01:45:09.569Z,21.5
2023-04-11T01:51:01.000Z,21.6
2023-04-11T01:56:52.310Z,21.6
2023-04-11T02:02:28.536Z,21.6
2023-04-11T02:08:21.670Z,21.7
2023-04-11T02:14:13.618Z,21.8
2023-04-11T02:20:05.748Z,21.9
2023-04-11T02:25:57.884Z,21.9
2023-04-11T02:31:49.853Z,21.9
2023-04-11T02:37:41.154Z,21.9
2023-04-11T02:43:31.996Z,21.9
2023-04-11T02:49:36.468Z,22
2023-04-11T02:55:27.780Z,22
2023-04-11T03:01:19.160Z,22
2023-04-11T03:06:57.081Z,22.1
2023-04-11T03:12:48.829Z,22
2023-04-11T03:18:40.753Z,22.1
2023-04-11T03:24:32.177Z,22.1
2023-04-11T03:30:23.781Z,22.1
2023-04-11T03:36:15.955Z,22.1
2023-04-11T03:41:52.155Z,22.1
2023-04-11T03:47:44.265Z,22.1
2023-04-11T03:53:38.590Z,22.1
2023-04-11T03:59:33.374Z,22.1
2023-04-11T04:05:12.163Z,22.1
2023-04-11T04:11:04.461Z,22.1
2023-04-11T04:16:56.226Z,22.1
2023-04-11T04:22:47.948Z,22.1
2023-04-11T04:28:40.024Z,22.2
2023-04-11T04:34:36.598Z,22.3
2023-04-11T04:40:28.597Z,22.2
2023-04-11T04:46:20.543Z,22.2
2023-04-11T04:51:57.900Z,22.2
2023-04-11T04:57:34.591Z,22.2
2023-04-11T05:03:27.302Z,22.2
2023-04-11T05:09:20.956Z,22.2
2023-04-11T05:15:14.808Z,22.2
2023-04-11T05:21:06.900Z,22.2
2023-04-11T05:26:58.845Z,22.2
2023-04-11T05:32:50.097Z,22.2
2023-04-11T05:38:41.981Z,22.2
2023-04-11T05:44:33.378Z,22.1
2023-04-11T05:50:24.538Z,22.1
2023-04-11T05:56:16.760Z,22.1
2023-04-11T06:02:15.632Z,22.1
2023-04-11T06:07:53.753Z,22.1
2023-04-11T06:13:47.651Z,22.1
2023-04-11T06:19:42.302Z,22.1
2023-04-11T06:25:32.881Z,22.1
2023-04-11T06:31:24.854Z,22.1
2023-04-11T06:37:17.197Z,22.1
2023-04-11T06:43:09.497Z,22.1
2023-04-11T06:48:46.069Z,22
2023-04-11T06:54:22.645Z,21.9
2023-04-11T07:00:14.758Z,21.8
2023-04-11T07:06:12.025Z,21.7
2023-04-11T07:12:04.145Z,21.7
2023-04-11T07:17:56.713Z,21.6
2023-04-11T07:23:48.187Z,21.6
2023-04-11T07:29:43.589Z,21.6
2023-04-11T07:35:35.333Z,21.6
2023-04-11T07:41:11.553Z,21.6
2023-04-11T07:47:03.368Z,21.6
2023-04-11T07:52:54.942Z,21.6
2023-04-11T07:58:45.789Z,21.6
2023-04-11T08:04:41.708Z,21.7
2023-04-11T08:10:33.394Z,21.7
2023-04-11T08:16:27.556Z,21.8
2023-04-11T08:22:30.397Z,21.8
2023-04-11T08:28:24.147Z,21.8
2023-04-11T08:34:05.429Z,21.8
2023-04-11T08:39:59.048Z,21.8
2023-04-11T08:45:50.445Z,21.8
2023-04-11T08:51:42.158Z,21.7
2023-04-11T08:57:33.779Z,21.6
2023-04-11T09:03:27.965Z,21.6
2023-04-11T09:09:19.201Z,21.4
2023-04-11T09:15:12.099Z,21.4
2023-04-11T09:21:11.472Z,21.4
2023-04-11T09:27:06.288Z,21.4
2023-04-11T09:32:58.402Z,21.4
2023-04-11T09:38:49.784Z,21.3
2023-04-11T09:44:43.929Z,21.3
2023-04-11T09:51:04.135Z,21.3
2023-04-11T09:57:12.821Z,21.3
2023-04-11T10:03:05.818Z,34.4
2023-04-11T10:08:58.741Z,50.3
2023-04-11T10:14:50.049Z,44.3
2023-04-11T10:20:46.540Z,39.9
2023-04-11T10:26:23.478Z,43.7
2023-04-11T10:32:14.926Z,55.1
2023-04-11T10:37:51.500Z,48.8
2023-04-11T10:43:28.447Z,43.7
2023-04-11T10:49:20.355Z,39.6
2023-04-11T10:55:12.296Z,36.6
2023-04-11T11:01:05.620Z,46.8
2023-04-11T11:07:35.740Z,49.4
2023-04-11T11:13:13.894Z,44.1
2023-04-11T11:19:06.467Z,39.9
2023-04-11T11:24:51.794Z,36.8
2023-04-11T11:30:43.521Z,34.4
2023-04-11T11:36:39.674Z,32.5
2023-04-11T11:42:30.971Z,31.9
2023-04-11T11:53:46.434Z,49.3
2023-04-11T11:59:25.024Z,44
2023-04-11T12:05:19.409Z,39.9
2023-04-11T12:11:12.125Z,36.8
2023-04-11T12:16:34.788Z,34.5
2023-04-11T12:22:27.133Z,32.6
2023-04-11T12:28:25.759Z,31.1
2023-04-11T12:34:19.682Z,29.8
2023-04-11T12:40:14.593Z,28.8
2023-04-11T12:52:13.898Z,36.3
2023-04-11T12:58:05.307Z,55.6
2023-04-11T13:04:07.055Z,46.9
2023-04-11T13:09:59.748Z,42
2023-04-11T13:16:06.887Z,38.3
2023-04-11T13:21:59.376Z,35.5
2023-04-11T13:27:51.886Z,33.4
2023-04-11T13:33:44.677Z,31.7
2023-04-11T13:39:38.495Z,30.4
2023-04-11T13:45:30.127Z,29.1
2023-04-11T13:51:06.870Z,28.3
2023-04-11T13:56:59.128Z,27.5
2023-04-11T14:03:07.706Z,26.8
2023-04-11T14:09:00.440Z,26.2
2023-04-11T14:14:52.241Z,25.7
2023-04-11T14:20:55.944Z,25.3
2023-04-11T14:26:49.106Z,24.9
2023-04-11T14:32:42.448Z,24.6
2023-04-11T14:38:34.303Z,24.3
2023-04-11T14:44:27.474Z,24
2023-04-11T14:50:20.677Z,23.8
2023-04-11T14:56:12.442Z,23.5
2023-04-11T15:02:04.343Z,23.4
2023-04-11T15:07:58.411Z,23.2
2023-04-11T15:13:50.199Z,23
2023-04-11T15:19:44.781Z,22.9
2023-04-11T15:25:36.542Z,22.8
2023-04-11T15:31:28.624Z,22.6
2023-04-11T15:37:23.456Z,22.5
2023-04-11T15:42:59.724Z,22.4
2023-04-11T15:48:52.216Z,22.4
2023-04-11T15:54:44.577Z,22.3
2023-04-11T16:00:36.473Z,22.3
2023-04-11T16:06:19.253Z,22.1
2023-04-11T16:12:11.046Z,22.1
2023-04-11T16:17:47.753Z,22
2023-04-11T16:23:40.179Z,21.9
2023-04-11T16:29:32.411Z,21.9
2023-04-11T16:35:26.950Z,21.8
2023-04-11T16:41:21.046Z,21.8
2023-04-11T16:46:29.061Z,21.7
2023-04-11T16:51:50.470Z,21.6
2023-04-11T16:57:42.179Z,21.6
2023-04-11T17:03:35.845Z,21.6
2023-04-11T17:09:28.573Z,21.6
2023-04-11T17:14:49.660Z,21.4
2023-04-11T17:20:26.411Z,21.4
2023-04-11T17:26:18.436Z,21.4
2023-04-11T17:32:10.671Z,21.4
2023-04-11T17:38:02.625Z,21.3
2023-04-11T17:44:04.810Z,21.3
2023-04-11T17:49:49.678Z,21.3
2023-04-11T17:55:37.835Z,21.3
2023-04-11T18:01:45.081Z,21.2
2023-04-11T18:29:54.413Z,21.1
2023-04-11T18:36:01.507Z,21.1
2023-04-11T18:41:57.391Z,21.1
2023-04-11T18:47:43.985Z,21
2023-04-11T18:53:30.241Z,21
2023-04-11T18:59:30.113Z,21
2023-04-11T19:05:21.054Z,21
2023-04-11T19:10:59.175Z,21.1
2023-04-11T19:16:37.372Z,21.2
2023-04-11T19:22:16.210Z,21.3
2023-04-11T19:27:53.807Z,21.4
2023-04-11T19:33:32.213Z,21.5
2023-04-11T19:39:09.862Z,21.5
2023-04-11T19:44:32.407Z,21.6
2023-04-11T19:50:10.741Z,21.6
2023-04-11T19:55:50.716Z,21.6
2023-04-11T20:01:28.639Z,21.7
2023-04-11T20:06:54.933Z,21.8
2023-04-11T20:12:33.652Z,21.8
2023-04-11T20:18:11.178Z,21.8
2023-04-11T20:23:32.347Z,21.8
2023-04-11T20:29:09.461Z,21.7
2023-04-11T20:34:46.752Z,21.8
2023-04-11T20:40:25.971Z,21.7
2023-04-11T20:46:02.577Z,21.8
2023-04-11T20:51:40.163Z,21.7
2023-04-11T20:57:16.168Z,21.7
2023-04-11T21:02:53.312Z,21.8
2023-04-11T21:08:46.016Z,21.8
2023-04-11T21:14:37.389Z,21.7
2023-04-11T21:20:28.631Z,21.4
2023-04-11T21:26:20.059Z,21.3
2023-04-11T21:31:57.062Z,21.4
2023-04-11T21:37:49.270Z,21.3
2023-04-11T21:43:40.841Z,21.3
2023-04-11T21:49:33.215Z,21.4
2023-04-11T21:55:25.686Z,21.4
2023-04-11T22:01:29.641Z,21.4
2023-04-11T22:07:35.272Z,21.4
2023-04-11T22:13:37.543Z,21.4
2023-04-11T22:19:30.259Z,21.4
2023-04-11T22:25:21.964Z,21.4
2023-04-11T22:31:13.672Z,21.4
2023-04-11T22:36:50.756Z,21.4
2023-04-11T22:42:42.062Z,21.3
2023-04-11T22:48:34.228Z,21.3
2023-04-11T22:54:26.125Z,21.3
2023-04-11T23:00:16.653Z,21.3
2023-04-11T23:06:08.809Z,21.3
2023-04-11T23:11:45.677Z,21.3
2023-04-11T23:17:37.510Z,21.3
2023-04-11T23:23:13.341Z,21.2
2023-04-11T23:29:04.936Z,21.2
2023-04-11T23:34:56.519Z,21.2
